Terminal Aerodrome Forecast
Issued by NWS Buffalo, NY

Home | Current Version | Previous Version | Text Only | Print | Product List | Glossary On
Versions: 1 2 3 4 5 6 7 8 9 10 11 12 13 14 15 16 17 18 19 20
000
FTUS41 KBUF 261120
TAFROC
TAF
KROC 261120Z 2612/2712 24008KT P6SM FEW070 BKN250
     FM261800 23008KT P6SM VCTS BKN050CB
     FM262000 23008KT 6SM -SHRA VCTS OVC040CB
     FM270000 19005KT P6SM VCSH OVC050
     FM270200 19006KT P6SM BKN050
     FM270800 20007KT P6SM VCSH BKN050=

USA.gov is the U.S. government's official web portal to all federal, state and local government web resources and services.